GMA1 EGPW-EGPF

Flight info

Callsign GMA1
Flight time 1h 22m
Altitude 28000
Route WAFIL DCT WIK DCT ERSON
Aircraft BE20/L-SBGRY/S

Departure

Time 2026-05-06 18:36
Airport Unst Airfield (EGPW)

Arrival

Time 2026-05-06 19:59
Airport Glasgow Airport (EGPF)
Time Latitude Longitude Altitude Speed Heading
2026-05-06 18:25 60.74757 -0.85251 70 ft 0 kts 150°
2026-05-06 18:33 60.74727 -0.85217 68 ft 10 kts 157°
2026-05-06 18:33 60.74686 -0.85228 67 ft 0 kts 207°
2026-05-06 18:33 60.74667 -0.85246 67 ft 7 kts 195°
2026-05-06 18:33 60.74621 -0.85121 71 ft 16 kts 115°
2026-05-06 18:34 60.74578 -0.84941 70 ft 4 kts 118°
2026-05-06 18:34 60.74564 -0.84875 71 ft 1 kts 58°
2026-05-06 18:34 60.74575 -0.84896 70 ft 6 kts 285°
2026-05-06 18:34 60.74578 -0.84908 67 ft 0 kts 292°
2026-05-06 18:35 60.74625 -0.85125 71 ft 52 kts 294°
2026-05-06 18:36 60.74861 -0.86252 156 ft 111 kts 294°
2026-05-06 18:36 60.75208 -0.87809 594 ft 128 kts 294°
2026-05-06 18:36 60.75591 -0.89578 1191 ft 142 kts 293°
2026-05-06 18:36 60.76006 -0.91432 1766 ft 150 kts 302°
2026-05-06 18:37 60.76897 -0.92837 2070 ft 174 kts 335°
2026-05-06 18:37 60.78174 -0.93290 2132 ft 205 kts 357°
2026-05-06 18:37 60.79601 -0.92803 2505 ft 209 kts 14°
2026-05-06 18:37 60.80915 -0.91509 2997 ft 210 kts 32°
2026-05-06 18:38 60.82000 -0.89487 3441 ft 215 kts 47°
2026-05-06 18:38 60.82856 -0.86892 3661 ft 226 kts 61°
2026-05-06 18:38 60.83358 -0.83831 3974 ft 228 kts 78°
2026-05-06 18:38 60.83358 -0.80588 4310 ft 230 kts 100°
2026-05-06 18:39 60.82868 -0.77402 4333 ft 241 kts 117°
2026-05-06 18:39 60.81867 -0.74665 4312 ft 244 kts 144°
2026-05-06 18:39 60.80342 -0.73339 4306 ft 238 kts 176°
2026-05-06 18:40 60.77248 -0.74900 4302 ft 229 kts 204°
2026-05-06 18:40 60.75783 -0.76028 4619 ft 218 kts 202°
2026-05-06 18:40 60.74377 -0.76927 5131 ft 207 kts 199°
2026-05-06 18:40 60.73016 -0.77737 5646 ft 202 kts 199°
2026-05-06 18:41 60.71677 -0.78549 6167 ft 199 kts 199°
2026-05-06 18:41 60.70351 -0.79365 6682 ft 199 kts 199°
2026-05-06 18:41 60.69028 -0.80178 7187 ft 199 kts 199°
2026-05-06 18:41 60.67702 -0.80990 7703 ft 199 kts 200°
2026-05-06 18:42 60.66373 -0.81802 8228 ft 200 kts 200°
2026-05-06 18:42 60.65041 -0.82617 8763 ft 201 kts 200°
2026-05-06 18:42 60.63702 -0.83436 9304 ft 201 kts 200°
2026-05-06 18:42 60.62355 -0.84257 9865 ft 202 kts 200°
2026-05-06 18:43 60.61002 -0.85083 10376 ft 204 kts 201°
2026-05-06 18:43 60.59640 -0.85913 10881 ft 205 kts 201°
2026-05-06 18:43 60.58268 -0.86748 11406 ft 206 kts 202°
2026-05-06 18:43 60.56891 -0.87585 11931 ft 207 kts 203°
2026-05-06 18:44 60.55506 -0.88426 12467 ft 208 kts 204°
2026-05-06 18:44 60.54116 -0.89270 13012 ft 209 kts 204°
2026-05-06 18:44 60.52734 -0.90109 13550 ft 211 kts 205°
2026-05-06 18:44 60.51307 -0.90974 14091 ft 212 kts 205°
2026-05-06 18:45 60.49909 -0.91820 14586 ft 213 kts 205°
2026-05-06 18:45 60.48478 -0.92687 15102 ft 216 kts 206°
2026-05-06 18:45 60.47035 -0.93558 15619 ft 217 kts 206°
2026-05-06 18:45 60.46059 -0.94146 15973 ft 216 kts 206°
2026-05-06 18:46 60.44172 -0.95279 16641 ft 211 kts 207°
2026-05-06 18:46 60.42774 -0.96121 17178 ft 208 kts 207°
2026-05-06 18:46 60.41397 -0.96951 17723 ft 205 kts 207°
2026-05-06 18:46 60.40035 -0.97771 18272 ft 203 kts 208°
2026-05-06 18:47 60.38690 -0.98579 18770 ft 201 kts 208°
2026-05-06 18:47 60.37359 -0.99377 19258 ft 198 kts 209°
2026-05-06 18:47 60.36034 -1.00176 19684 ft 200 kts 209°
2026-05-06 18:47 60.34686 -1.00990 20070 ft 205 kts 209°
2026-05-06 18:48 60.33290 -1.01834 20469 ft 214 kts 208°
2026-05-06 18:48 60.31842 -1.02700 20877 ft 220 kts 208°
2026-05-06 18:48 60.30364 -1.03579 21290 ft 223 kts 208°
2026-05-06 18:48 60.28865 -1.04471 21718 ft 226 kts 209°
2026-05-06 18:49 60.27352 -1.05373 22128 ft 227 kts 209°
2026-05-06 18:49 60.25834 -1.06277 22549 ft 228 kts 209°
2026-05-06 18:49 60.24310 -1.07184 22977 ft 228 kts 209°
2026-05-06 18:49 60.22786 -1.08090 23409 ft 228 kts 209°
2026-05-06 18:50 60.21264 -1.08994 23800 ft 228 kts 210°
2026-05-06 18:50 60.19744 -1.09897 24161 ft 228 kts 210°
2026-05-06 18:50 60.18227 -1.10797 24525 ft 227 kts 210°
2026-05-06 18:50 60.16711 -1.11695 24839 ft 227 kts 210°
2026-05-06 18:51 60.15219 -1.12578 25208 ft 226 kts 210°
2026-05-06 18:51 60.13711 -1.13470 25580 ft 226 kts 211°
2026-05-06 18:51 60.12207 -1.14358 25962 ft 225 kts 211°
2026-05-06 18:51 60.10710 -1.15242 26347 ft 224 kts 211°
2026-05-06 18:52 60.09219 -1.16121 26736 ft 223 kts 212°
2026-05-06 18:52 60.07736 -1.16994 27130 ft 222 kts 212°
2026-05-06 18:52 60.06261 -1.17863 27529 ft 220 kts 212°
2026-05-06 18:52 60.04792 -1.18726 27932 ft 219 kts 212°
2026-05-06 18:53 60.03302 -1.19617 28039 ft 230 kts 212°
2026-05-06 18:53 60.01727 -1.20559 28053 ft 242 kts 211°
2026-05-06 18:53 60.00081 -1.21519 28058 ft 250 kts 211°
2026-05-06 18:53 59.98387 -1.22501 28057 ft 256 kts 210°
2026-05-06 18:54 59.96659 -1.23508 28058 ft 261 kts 210°
2026-05-06 18:54 59.94910 -1.24529 28057 ft 264 kts 210°
2026-05-06 18:54 59.93143 -1.25560 28056 ft 265 kts 210°
2026-05-06 18:54 59.91365 -1.26596 28056 ft 267 kts 210°
2026-05-06 18:55 59.89579 -1.27636 28057 ft 268 kts 210°
2026-05-06 18:55 59.87841 -1.28805 28010 ft 256 kts 220°
2026-05-06 18:55 59.86373 -1.30624 28047 ft 247 kts 227°
2026-05-06 18:55 59.84948 -1.32550 28044 ft 248 kts 226°
2026-05-06 18:56 59.83662 -1.34274 28048 ft 249 kts 226°
2026-05-06 18:56 59.82829 -1.35388 28050 ft 250 kts 226°
2026-05-06 18:56 59.81404 -1.37291 28052 ft 250 kts 226°
2026-05-06 18:56 59.79938 -1.39251 28053 ft 251 kts 226°
2026-05-06 18:57 59.78509 -1.41159 28049 ft 251 kts 226°
2026-05-06 18:57 59.77057 -1.43097 28049 ft 251 kts 226°
2026-05-06 18:57 59.75606 -1.45031 28045 ft 252 kts 226°
2026-05-06 18:57 59.74152 -1.46966 28047 ft 252 kts 226°
2026-05-06 18:58 59.72698 -1.48900 28051 ft 252 kts 226°
2026-05-06 18:58 59.71243 -1.50831 28052 ft 252 kts 226°
2026-05-06 18:58 59.69788 -1.52763 28052 ft 252 kts 226°
2026-05-06 18:58 59.68332 -1.54693 28052 ft 252 kts 226°
2026-05-06 18:59 59.66876 -1.56622 28048 ft 252 kts 226°
2026-05-06 18:59 59.65418 -1.58550 28043 ft 252 kts 226°
2026-05-06 18:59 59.63959 -1.60477 28041 ft 252 kts 226°
2026-05-06 18:59 59.62502 -1.62400 28041 ft 252 kts 226°
2026-05-06 19:00 59.61042 -1.64325 28042 ft 252 kts 226°
2026-05-06 19:00 59.59584 -1.66246 28042 ft 252 kts 226°
2026-05-06 19:00 59.58125 -1.68164 28038 ft 251 kts 225°
2026-05-06 19:00 59.57163 -1.69430 28034 ft 252 kts 225°
2026-05-06 19:01 59.55209 -1.71999 28034 ft 253 kts 225°
2026-05-06 19:01 59.54235 -1.73275 28035 ft 254 kts 225°
2026-05-06 19:01 59.52765 -1.75202 28036 ft 254 kts 225°
2026-05-06 19:01 59.51291 -1.77131 28036 ft 254 kts 225°
2026-05-06 19:02 59.49817 -1.79059 28037 ft 255 kts 225°
2026-05-06 19:02 59.48341 -1.80987 28037 ft 255 kts 225°
2026-05-06 19:02 59.46863 -1.82916 28029 ft 255 kts 225°
2026-05-06 19:02 59.45386 -1.84842 28030 ft 255 kts 225°
2026-05-06 19:03 59.43906 -1.86769 28030 ft 255 kts 225°
2026-05-06 19:03 59.42427 -1.88693 28030 ft 255 kts 225°
2026-05-06 19:03 59.40946 -1.90619 28031 ft 255 kts 225°
2026-05-06 19:03 59.39465 -1.92540 28031 ft 255 kts 225°
2026-05-06 19:04 59.37983 -1.94462 28036 ft 255 kts 225°
2026-05-06 19:04 59.36503 -1.96378 28036 ft 255 kts 225°
2026-05-06 19:04 59.35025 -1.98292 28039 ft 255 kts 225°
2026-05-06 19:04 59.33547 -2.00203 28039 ft 255 kts 225°
2026-05-06 19:05 59.32069 -2.02110 28039 ft 254 kts 225°
2026-05-06 19:05 59.30590 -2.04018 28038 ft 254 kts 225°
2026-05-06 19:05 59.29114 -2.05918 28023 ft 253 kts 225°
2026-05-06 19:05 59.27641 -2.07816 28021 ft 254 kts 225°
2026-05-06 19:06 59.26165 -2.09715 28020 ft 254 kts 225°
2026-05-06 19:06 59.24685 -2.11617 28021 ft 255 kts 225°
2026-05-06 19:06 59.23201 -2.13519 28021 ft 255 kts 225°
2026-05-06 19:06 59.21739 -2.15393 28021 ft 255 kts 225°
2026-05-06 19:07 59.20235 -2.17319 28022 ft 255 kts 225°
2026-05-06 19:07 59.18772 -2.19191 28022 ft 255 kts 225°
2026-05-06 19:07 59.17285 -2.21090 28022 ft 255 kts 225°
2026-05-06 19:07 59.15799 -2.22987 28022 ft 255 kts 225°
2026-05-06 19:08 59.14310 -2.24885 28024 ft 256 kts 225°
2026-05-06 19:08 59.12825 -2.26777 28027 ft 256 kts 225°
2026-05-06 19:08 59.11334 -2.28674 28027 ft 256 kts 224°
2026-05-06 19:08 59.09847 -2.30565 28022 ft 256 kts 224°
2026-05-06 19:09 59.08358 -2.32455 28022 ft 256 kts 224°
2026-05-06 19:09 59.06870 -2.34342 28022 ft 256 kts 224°
2026-05-06 19:09 59.05380 -2.36230 28022 ft 256 kts 224°
2026-05-06 19:09 59.03891 -2.38115 28022 ft 256 kts 224°
2026-05-06 19:10 59.02401 -2.39999 28020 ft 256 kts 224°
2026-05-06 19:10 59.00909 -2.41883 28008 ft 256 kts 224°
2026-05-06 19:10 58.99421 -2.43758 28020 ft 255 kts 224°
2026-05-06 19:10 58.97934 -2.45634 28019 ft 255 kts 224°
2026-05-06 19:11 58.96443 -2.47512 28019 ft 256 kts 224°
2026-05-06 19:11 58.94951 -2.49389 28019 ft 256 kts 224°
2026-05-06 19:11 58.93454 -2.51270 28020 ft 256 kts 224°
2026-05-06 19:11 58.91957 -2.53148 28020 ft 257 kts 224°
2026-05-06 19:12 58.90460 -2.55025 28010 ft 256 kts 224°
2026-05-06 19:12 58.88963 -2.56899 28010 ft 256 kts 224°
2026-05-06 19:12 58.87468 -2.58770 28010 ft 256 kts 224°
2026-05-06 19:12 58.85973 -2.60639 28010 ft 256 kts 224°
2026-05-06 19:13 58.84476 -2.62508 28010 ft 256 kts 224°
2026-05-06 19:13 58.82980 -2.64374 28010 ft 256 kts 224°
2026-05-06 19:13 58.81484 -2.66237 28010 ft 256 kts 224°
2026-05-06 19:13 58.79987 -2.68101 28010 ft 256 kts 224°
2026-05-06 19:14 58.78489 -2.69964 28012 ft 256 kts 224°
2026-05-06 19:14 58.76992 -2.71823 28012 ft 256 kts 224°
2026-05-06 19:14 58.75495 -2.73680 28012 ft 256 kts 224°
2026-05-06 19:14 58.73992 -2.75544 28013 ft 257 kts 224°
2026-05-06 19:15 58.72483 -2.77412 28012 ft 258 kts 224°
2026-05-06 19:15 58.70974 -2.79278 28013 ft 258 kts 224°
2026-05-06 19:15 58.69462 -2.81147 28014 ft 258 kts 224°
2026-05-06 19:15 58.67969 -2.82990 28017 ft 259 kts 224°
2026-05-06 19:16 58.66433 -2.84883 28019 ft 259 kts 224°
2026-05-06 19:16 58.64938 -2.86724 28020 ft 259 kts 224°
2026-05-06 19:16 58.63401 -2.88615 28021 ft 259 kts 224°
2026-05-06 19:16 58.61907 -2.90452 28021 ft 259 kts 224°
2026-05-06 19:17 58.60390 -2.92315 28019 ft 259 kts 224°
2026-05-06 19:17 58.58870 -2.94179 28020 ft 259 kts 224°
2026-05-06 19:17 58.57353 -2.96038 28021 ft 259 kts 224°
2026-05-06 19:17 58.55833 -2.97899 28021 ft 259 kts 224°
2026-05-06 19:18 58.54313 -2.99758 28022 ft 259 kts 224°
2026-05-06 19:18 58.52794 -3.01613 28023 ft 259 kts 224°
2026-05-06 19:18 58.51273 -3.03469 28023 ft 259 kts 224°
2026-05-06 19:18 58.49753 -3.05322 28023 ft 259 kts 224°
2026-05-06 19:19 58.48232 -3.07173 28023 ft 259 kts 224°
2026-05-06 19:19 58.46710 -3.09025 28023 ft 259 kts 224°
2026-05-06 19:19 58.45069 -3.10576 28026 ft 270 kts 210°
2026-05-06 19:19 58.43283 -3.11696 28004 ft 270 kts 210°
2026-05-06 19:20 58.41496 -3.12831 28019 ft 271 kts 210°
2026-05-06 19:20 58.39703 -3.13983 28021 ft 273 kts 210°
2026-05-06 19:20 58.37902 -3.15134 28012 ft 274 kts 210°
2026-05-06 19:20 58.36094 -3.16284 28016 ft 274 kts 210°
2026-05-06 19:21 58.34282 -3.17435 27992 ft 274 kts 210°
2026-05-06 19:21 58.32470 -3.18586 27995 ft 275 kts 210°
2026-05-06 19:21 58.30657 -3.19738 27994 ft 275 kts 210°
2026-05-06 19:21 58.28867 -3.20874 28005 ft 275 kts 210°
2026-05-06 19:22 58.27049 -3.22025 28001 ft 275 kts 210°
2026-05-06 19:22 58.25234 -3.23173 27999 ft 275 kts 210°
2026-05-06 19:22 58.23417 -3.24321 27995 ft 275 kts 210°
2026-05-06 19:22 58.21600 -3.25469 27992 ft 275 kts 210°
2026-05-06 19:23 58.19782 -3.26616 27988 ft 275 kts 210°
2026-05-06 19:23 58.17967 -3.27760 27988 ft 275 kts 210°
2026-05-06 19:23 58.16149 -3.28904 27997 ft 275 kts 210°
2026-05-06 19:23 58.14332 -3.30045 27983 ft 275 kts 210°
2026-05-06 19:24 58.12516 -3.31187 27983 ft 275 kts 210°
2026-05-06 19:24 58.10694 -3.32331 27983 ft 276 kts 210°
2026-05-06 19:24 58.08872 -3.33473 27981 ft 276 kts 210°
2026-05-06 19:24 58.07052 -3.34612 27981 ft 276 kts 210°
2026-05-06 19:25 58.05215 -3.35760 27960 ft 278 kts 210°
2026-05-06 19:25 58.03366 -3.36922 27765 ft 283 kts 210°
2026-05-06 19:25 58.01487 -3.38096 27581 ft 286 kts 209°
2026-05-06 19:25 57.99586 -3.39277 27398 ft 288 kts 209°
2026-05-06 19:26 57.97678 -3.40462 27214 ft 290 kts 208°
2026-05-06 19:26 57.95762 -3.41654 27028 ft 290 kts 208°
2026-05-06 19:26 57.93838 -3.42849 26846 ft 291 kts 208°
2026-05-06 19:26 57.91916 -3.44041 26665 ft 291 kts 208°
2026-05-06 19:27 57.89997 -3.45230 26488 ft 291 kts 208°
2026-05-06 19:27 57.88070 -3.46423 26308 ft 291 kts 208°
2026-05-06 19:27 57.86146 -3.47614 26088 ft 292 kts 207°
2026-05-06 19:27 57.84215 -3.48807 25907 ft 292 kts 207°
2026-05-06 19:28 57.82288 -3.49995 25734 ft 291 kts 207°
2026-05-06 19:28 57.80363 -3.51180 25553 ft 291 kts 207°
2026-05-06 19:28 57.78446 -3.52361 25374 ft 290 kts 207°
2026-05-06 19:28 57.76554 -3.53526 25180 ft 290 kts 207°
2026-05-06 19:29 57.74640 -3.54702 24984 ft 290 kts 207°
2026-05-06 19:29 57.72724 -3.55876 24790 ft 290 kts 206°
2026-05-06 19:29 57.70805 -3.57053 24597 ft 290 kts 206°
2026-05-06 19:29 57.68892 -3.58224 24407 ft 289 kts 206°
2026-05-06 19:30 57.66983 -3.59392 24216 ft 289 kts 206°
2026-05-06 19:30 57.65072 -3.60559 24044 ft 289 kts 206°
2026-05-06 19:30 57.63162 -3.61724 23855 ft 288 kts 206°
2026-05-06 19:30 57.61253 -3.62887 23664 ft 288 kts 206°
2026-05-06 19:31 57.59350 -3.64046 23424 ft 288 kts 206°
2026-05-06 19:31 57.57453 -3.65200 23202 ft 288 kts 206°
2026-05-06 19:31 57.53642 -3.67514 22758 ft 287 kts 205°
2026-05-06 19:32 57.51742 -3.68665 22541 ft 287 kts 205°
2026-05-06 19:32 57.49845 -3.69814 22322 ft 287 kts 205°
2026-05-06 19:32 57.47946 -3.70963 22106 ft 287 kts 205°
2026-05-06 19:32 57.46049 -3.72110 21888 ft 287 kts 205°
2026-05-06 19:33 57.44148 -3.73256 21678 ft 287 kts 205°
2026-05-06 19:33 57.42252 -3.74399 21472 ft 287 kts 205°
2026-05-06 19:33 57.40354 -3.75542 21250 ft 287 kts 204°
2026-05-06 19:33 57.38457 -3.76683 21042 ft 287 kts 204°
2026-05-06 19:34 57.36559 -3.77823 20833 ft 286 kts 204°
2026-05-06 19:34 57.34667 -3.78959 20635 ft 286 kts 204°
2026-05-06 19:34 57.32775 -3.80094 20422 ft 285 kts 204°
2026-05-06 19:34 57.30890 -3.81223 20188 ft 285 kts 203°
2026-05-06 19:35 57.28999 -3.82354 19987 ft 286 kts 203°
2026-05-06 19:35 57.27110 -3.83483 19788 ft 285 kts 203°
2026-05-06 19:35 57.25219 -3.84612 19592 ft 286 kts 203°
2026-05-06 19:35 57.23331 -3.85738 19394 ft 285 kts 203°
2026-05-06 19:36 57.21441 -3.86864 19201 ft 285 kts 202°
2026-05-06 19:36 57.19555 -3.87986 19005 ft 285 kts 202°
2026-05-06 19:36 57.17670 -3.89106 18818 ft 284 kts 202°
2026-05-06 19:36 57.15789 -3.90224 18625 ft 284 kts 202°
2026-05-06 19:37 57.13904 -3.91344 18435 ft 286 kts 202°
2026-05-06 19:37 57.12008 -3.92466 18239 ft 286 kts 202°
2026-05-06 19:37 57.10110 -3.93588 18020 ft 287 kts 202°
2026-05-06 19:37 57.08853 -3.94331 17883 ft 286 kts 202°
2026-05-06 19:38 57.06315 -3.95831 17590 ft 286 kts 202°
2026-05-06 19:38 57.04444 -3.96935 17360 ft 286 kts 201°
2026-05-06 19:38 57.02549 -3.98052 17145 ft 286 kts 201°
2026-05-06 19:38 57.00656 -3.99166 16932 ft 286 kts 201°
2026-05-06 19:39 56.98766 -4.00277 16717 ft 285 kts 201°
2026-05-06 19:39 56.96881 -4.01385 16500 ft 284 kts 201°
2026-05-06 19:39 56.95003 -4.02487 16289 ft 283 kts 201°
2026-05-06 19:39 56.93131 -4.03584 16084 ft 282 kts 201°
2026-05-06 19:40 56.91262 -4.04679 15872 ft 281 kts 201°
2026-05-06 19:40 56.89401 -4.05767 15668 ft 280 kts 201°
2026-05-06 19:40 56.87550 -4.06849 15470 ft 280 kts 201°
2026-05-06 19:40 56.85698 -4.07930 15265 ft 279 kts 201°
2026-05-06 19:41 56.83853 -4.09006 15060 ft 278 kts 201°
2026-05-06 19:41 56.82018 -4.10074 14871 ft 277 kts 201°
2026-05-06 19:41 56.80186 -4.11142 14670 ft 276 kts 201°
2026-05-06 19:41 56.78359 -4.12204 14472 ft 275 kts 201°
2026-05-06 19:42 56.76540 -4.13259 14258 ft 274 kts 201°
2026-05-06 19:42 56.74722 -4.14315 14062 ft 274 kts 201°
2026-05-06 19:42 56.72907 -4.15366 13866 ft 273 kts 201°
2026-05-06 19:42 56.71094 -4.16417 13654 ft 273 kts 201°
2026-05-06 19:43 56.69288 -4.17461 13436 ft 272 kts 201°
2026-05-06 19:43 56.67488 -4.18501 13218 ft 271 kts 201°
2026-05-06 19:43 56.65699 -4.19534 12993 ft 269 kts 201°
2026-05-06 19:43 56.63918 -4.20561 12776 ft 268 kts 201°
2026-05-06 19:44 56.62138 -4.21587 12568 ft 268 kts 200°
2026-05-06 19:44 56.60364 -4.22608 12359 ft 267 kts 200°
2026-05-06 19:44 56.58594 -4.23625 12143 ft 266 kts 200°
2026-05-06 19:44 56.56829 -4.24639 11934 ft 265 kts 200°
2026-05-06 19:45 56.55077 -4.25644 11733 ft 263 kts 200°
2026-05-06 19:45 56.53328 -4.26647 11529 ft 264 kts 200°
2026-05-06 19:45 56.51579 -4.27649 11323 ft 264 kts 200°
2026-05-06 19:45 56.49836 -4.28646 11106 ft 262 kts 200°
2026-05-06 19:46 56.48102 -4.29637 10904 ft 262 kts 200°
2026-05-06 19:46 56.46364 -4.30600 10700 ft 260 kts 196°
2026-05-06 19:46 56.44579 -4.31073 10501 ft 260 kts 189°
2026-05-06 19:46 56.42785 -4.31488 10298 ft 260 kts 190°
2026-05-06 19:47 56.41013 -4.31917 10112 ft 261 kts 190°
2026-05-06 19:47 56.39194 -4.32353 9913 ft 260 kts 190°
2026-05-06 19:47 56.37423 -4.32773 9703 ft 260 kts 189°
2026-05-06 19:47 56.35639 -4.33194 9482 ft 258 kts 189°
2026-05-06 19:48 56.33860 -4.33616 9250 ft 257 kts 189°
2026-05-06 19:48 56.32089 -4.34036 9041 ft 256 kts 189°
2026-05-06 19:48 56.30327 -4.34453 8830 ft 255 kts 189°
2026-05-06 19:48 56.28573 -4.34867 8614 ft 253 kts 189°
2026-05-06 19:49 56.26825 -4.35281 8405 ft 254 kts 189°
2026-05-06 19:49 56.25076 -4.35693 8194 ft 253 kts 188°
2026-05-06 19:49 56.23328 -4.36105 7987 ft 253 kts 188°
2026-05-06 19:49 56.21585 -4.36516 7767 ft 253 kts 188°
2026-05-06 19:50 56.19845 -4.36925 7561 ft 252 kts 188°
2026-05-06 19:50 56.18109 -4.37333 7359 ft 251 kts 188°
2026-05-06 19:50 56.16382 -4.37629 7150 ft 248 kts 177°
2026-05-06 19:50 56.14759 -4.36655 6953 ft 249 kts 147°
2026-05-06 19:51 56.13857 -4.35393 6826 ft 248 kts 141°
2026-05-06 19:51 56.12569 -4.33322 6626 ft 249 kts 139°
2026-05-06 19:51 56.11292 -4.31241 6439 ft 248 kts 140°
2026-05-06 19:51 56.10001 -4.29207 6228 ft 246 kts 140°
2026-05-06 19:52 56.08711 -4.27199 6012 ft 245 kts 140°
2026-05-06 19:52 56.07433 -4.25198 5801 ft 244 kts 140°
2026-05-06 19:52 56.06161 -4.23201 5591 ft 243 kts 140°
2026-05-06 19:52 56.04866 -4.21294 5379 ft 239 kts 149°
2026-05-06 19:53 56.03353 -4.20105 5172 ft 238 kts 166°
2026-05-06 19:53 56.01798 -4.19779 4963 ft 213 kts 183°
2026-05-06 19:53 56.00413 -4.20305 4741 ft 197 kts 201°
2026-05-06 19:53 55.99242 -4.21364 4511 ft 182 kts 208°
2026-05-06 19:54 55.98291 -4.22655 4311 ft 164 kts 220°
2026-05-06 19:54 55.97508 -4.23965 3879 ft 149 kts 221°
2026-05-06 19:54 55.96791 -4.25229 3405 ft 136 kts 223°
2026-05-06 19:54 55.96230 -4.26314 3014 ft 108 kts 225°
2026-05-06 19:55 55.95737 -4.27300 2633 ft 105 kts 225°
2026-05-06 19:55 55.95233 -4.28209 2357 ft 101 kts 222°
2026-05-06 19:55 55.94741 -4.29073 2087 ft 98 kts 223°
2026-05-06 19:55 55.94271 -4.29975 1870 ft 100 kts 225°
2026-05-06 19:56 55.93792 -4.30906 1704 ft 103 kts 224°
2026-05-06 19:56 55.93298 -4.31854 1599 ft 107 kts 225°
2026-05-06 19:56 55.92765 -4.32831 1519 ft 111 kts 223°
2026-05-06 19:56 55.92222 -4.33856 1391 ft 116 kts 227°
2026-05-06 19:57 55.91668 -4.34931 1246 ft 119 kts 224°
2026-05-06 19:57 55.91073 -4.35970 1126 ft 120 kts 223°
2026-05-06 19:57 55.90490 -4.37057 934 ft 124 kts 230°
2026-05-06 19:57 55.89935 -4.38197 718 ft 118 kts 229°
2026-05-06 19:58 55.89379 -4.39242 545 ft 115 kts 226°
2026-05-06 19:58 55.88823 -4.40264 373 ft 115 kts 227°
2026-05-06 19:58 55.88271 -4.41308 177 ft 114 kts 228°
2026-05-06 19:58 55.87732 -4.42317 46 ft 111 kts 227°
2026-05-06 19:59 55.87261 -4.43199 25 ft 86 kts 227°
2026-05-06 19:59 55.87045 -4.43599 24 ft 23 kts 216°
2026-05-06 19:59 55.86869 -4.43722 26 ft 13 kts 199°
2026-05-06 19:59 55.86768 -4.43777 24 ft 5 kts 159°
2026-05-06 20:00 55.86737 -4.43730 24 ft 0 kts 103°
2026-05-06 20:00 55.86741 -4.43693 24 ft 9 kts 74°
2026-05-06 20:00 55.86769 -4.43518 24 ft 20 kts 73°
2026-05-06 20:01 55.86797 -4.43349 25 ft 16 kts 73°
2026-05-06 20:01 55.86831 -4.43136 24 ft 20 kts 74°
2026-05-06 20:01 55.86882 -4.42954 24 ft 20 kts 31°
2026-05-06 20:01 55.86997 -4.42855 24 ft 20 kts 19°
2026-05-06 20:02 55.87121 -4.42774 25 ft 19 kts 21°
2026-05-06 20:02 55.87227 -4.42687 26 ft 8 kts 58°
2026-05-06 20:02 55.87215 -4.42538 24 ft 7 kts 66°
2026-05-06 20:02 55.87240 -4.42519 24 ft 0 kts 282°
2026-05-06 20:03 55.87241 -4.42521 24 ft 0 kts 287°